Time;durP1;ratioP1;P1;durP2;ratioP2;P2;SDS_P1;SDS_P2;PMS_P1;PMS_P2;Temp;Humidity;BMP_temperature;BMP_pressure;BME280_temperature;BME280_humidity;BME280_pressure;Samples;Min_cycle;Max_cycle;Signal;HPM_P1;HPM_P2
2024/03/24 00:01:05;;;;;;;42.28;39.78;;;;;;;6.40;100.00;100260.75;5088260;28;20048;-71
2024/03/24 00:03:35;;;;;;;35.40;33.05;;;;;;;6.18;100.00;100252.84;5086784;28;20058;-71
2024/03/24 00:06:01;;;;;;;37.08;34.78;;;;;;;6.47;100.00;100244.97;5079717;28;20097;-72
2024/03/24 00:08:28;;;;;;;39.13;36.72;;;;;;;6.48;100.00;100244.81;5086722;28;20099;-73
2024/03/24 00:10:54;;;;;;;36.28;34.08;;;;;;;6.30;100.00;100241.81;5086120;28;20097;-72
2024/03/24 00:13:22;;;;;;;40.50;37.95;;;;;;;6.57;100.00;100242.84;5088894;28;20044;-72
2024/03/24 00:15:48;;;;;;;40.55;38.13;;;;;;;6.34;100.00;100249.13;5080720;28;20049;-72
2024/03/24 00:18:15;;;;;;;36.15;33.75;;;;;;;5.91;100.00;100235.09;5079767;28;20052;-72
2024/03/24 00:20:43;;;;;;;36.53;34.03;;;;;;;6.27;100.00;100231.63;5080506;28;20106;-72
2024/03/24 00:23:10;;;;;;;35.60;32.75;;;;;;;6.73;100.00;100231.19;5082882;28;20051;-72
2024/03/24 00:25:44;;;;;;;35.00;32.67;;;;;;;6.39;100.00;100228.28;5088649;28;20052;-72
2024/03/24 00:28:11;;;;;;;36.13;33.83;;;;;;;6.62;100.00;100228.03;5085390;28;20052;-72
2024/03/24 00:30:38;;;;;;;38.35;36.03;;;;;;;6.65;100.00;100219.75;5088431;28;20125;-72
2024/03/24 00:33:05;;;;;;;41.75;39.05;;;;;;;6.58;100.00;100215.44;5081487;28;20139;-72
2024/03/24 00:35:47;;;;;;;46.58;43.78;;;;;;;6.41;100.00;100214.88;5088450;28;20086;-71
2024/03/24 00:38:14;;;;;;;38.05;35.70;;;;;;;6.24;100.00;100208.28;5088544;28;20051;-72
2024/03/24 00:40:40;;;;;;;35.67;33.28;;;;;;;6.18;100.00;100201.94;5066797;28;20040;-72
2024/03/24 00:43:07;;;;;;;36.25;33.80;;;;;;;5.96;100.00;100204.56;5070520;28;20550;-73
2024/03/24 00:45:33;;;;;;;39.13;36.63;;;;;;;5.72;100.00;100203.09;5089366;28;20511;-72
2024/03/24 00:48:04;;;;;;;42.60;39.90;;;;;;;6.08;100.00;100199.63;5086573;28;20049;-72
2024/03/24 00:50:30;;;;;;;40.22;37.63;;;;;;;5.92;100.00;100197.19;5088404;28;20051;-73
2024/03/24 00:53:01;;;;;;;36.58;34.08;;;;;;;5.85;100.00;100183.94;5088695;28;20075;-72
2024/03/24 00:55:28;;;;;;;34.20;32.00;;;;;;;5.38;100.00;100197.59;5083912;28;20098;-73
2024/03/24 00:57:55;;;;;;;35.00;32.70;;;;;;;5.53;100.00;100193.13;5078222;28;20117;-71
2024/03/24 01:00:21;;;;;;;36.20;34.00;;;;;;;5.70;100.00;100183.19;5071735;28;20568;-72
2024/03/24 01:02:49;;;;;;;35.80;33.60;;;;;;;5.81;100.00;100197.66;5085539;28;20071;-73
2024/03/24 01:05:15;;;;;;;36.42;34.22;;;;;;;5.52;100.00;100196.78;5081398;28;20077;-73
2024/03/24 01:07:42;;;;;;;35.20;33.03;;;;;;;5.56;100.00;100195.38;5086255;28;20432;-73
2024/03/24 01:10:10;;;;;;;35.50;33.33;;;;;;;5.60;100.00;100186.13;5082941;28;20064;-71
2024/03/24 01:12:39;;;;;;;36.28;34.08;;;;;;;5.92;100.00;100187.44;5087977;28;20505;-73
2024/03/24 01:15:06;;;;;;;37.13;34.72;;;;;;;5.89;100.00;100182.56;5091679;28;21815;-73
2024/03/24 01:17:33;;;;;;;40.88;38.17;;;;;;;5.92;100.00;100176.09;5092340;28;20055;-73
2024/03/24 01:19:59;;;;;;;39.42;36.83;;;;;;;5.66;100.00;100181.94;5087402;28;20052;-73
2024/03/24 01:22:26;;;;;;;37.45;34.95;;;;;;;5.90;100.00;100175.47;5090897;28;20105;-71
2024/03/24 01:24:53;;;;;;;32.90;30.30;;;;;;;6.45;100.00;100183.69;5073437;28;20056;-73
2024/03/24 01:27:20;;;;;;;36.28;33.97;;;;;;;6.47;100.00;100186.94;5092268;28;20048;-73
2024/03/24 01:29:48;;;;;;;38.25;35.75;;;;;;;6.17;100.00;100181.81;5091346;28;20447;-71
2024/03/24 01:32:14;;;;;;;34.38;31.98;;;;;;;6.08;100.00;100172.41;5090335;28;20054;-71
2024/03/24 01:34:41;;;;;;;33.17;30.98;;;;;;;6.11;100.00;100182.59;5081346;28;20480;-71
2024/03/24 01:37:07;;;;;;;34.95;32.63;;;;;;;6.03;100.00;100180.09;5074884;28;20048;-71
2024/03/24 01:39:34;;;;;;;35.30;32.80;;;;;;;6.18;100.00;100171.09;5082513;28;20109;-71
2024/03/24 01:42:00;;;;;;;35.97;33.58;;;;;;;6.48;100.00;100168.28;5082149;28;20070;-71
2024/03/24 01:44:29;;;;;;;37.20;34.78;;;;;;;6.44;100.00;100164.38;5091735;28;20511;-72
2024/03/24 01:46:55;;;;;;;36.78;34.30;;;;;;;6.42;100.00;100163.78;5090375;28;20044;-71
2024/03/24 01:49:22;;;;;;;35.75;33.20;;;;;;;6.40;100.00;100171.06;5091869;28;20511;-71
2024/03/24 01:51:48;;;;;;;37.35;35.05;;;;;;;6.42;100.00;100169.88;5091093;28;20099;-72
2024/03/24 01:54:16;;;;;;;38.42;35.92;;;;;;;6.27;100.00;100163.06;5082897;28;20136;-72
2024/03/24 01:56:43;;;;;;;38.63;36.03;;;;;;;6.55;100.00;100168.31;5090161;28;20048;-72
2024/03/24 01:59:11;;;;;;;42.50;39.80;;;;;;;5.37;100.00;100167.81;5084857;28;20056;-71
2024/03/24 02:01:39;;;;;;;38.15;35.67;;;;;;;5.77;100.00;100173.50;5083504;28;20054;-73
2024/03/24 02:04:10;;;;;;;37.92;35.53;;;;;;;5.78;100.00;100167.25;5092127;28;20215;-72
2024/03/24 02:06:36;;;;;;;35.72;33.22;;;;;;;5.12;100.00;100169.16;5087118;28;20564;-72
2024/03/24 02:09:03;;;;;;;39.03;36.58;;;;;;;5.08;100.00;100173.94;5091993;28;20510;-72
2024/03/24 02:11:30;;;;;;;44.70;41.50;;;;;;;5.02;100.00;100165.00;5071986;28;20102;-72
2024/03/24 02:14:00;;;;;;;41.85;38.95;;;;;;;5.18;100.00;100171.06;5079023;28;20056;-72
2024/03/24 02:16:26;;;;;;;45.88;42.88;;;;;;;5.28;100.00;100169.75;5090548;28;20060;-71
2024/03/24 02:18:54;;;;;;;39.80;37.08;;;;;;;5.20;100.00;100169.84;5091927;28;20052;-72
2024/03/24 02:21:22;;;;;;;38.80;36.00;;;;;;;5.24;100.00;100168.50;5091830;28;20044;-71
2024/03/24 02:23:50;;;;;;;37.95;35.15;;;;;;;5.40;100.00;100167.47;5091323;28;20085;-72
2024/03/24 02:26:16;;;;;;;37.17;34.58;;;;;;;5.31;100.00;100165.94;5082404;28;20092;-72
2024/03/24 02:28:44;;;;;;;35.78;33.28;;;;;;;5.26;100.00;100166.50;5079211;28;20465;-72
2024/03/24 02:31:10;;;;;;;38.50;35.70;;;;;;;5.46;100.00;100161.44;5082194;28;20435;-72
2024/03/24 02:33:37;;;;;;;39.05;36.35;;;;;;;5.20;100.00;100166.41;5077939;28;20156;-72
2024/03/24 02:36:03;;;;;;;42.20;39.30;;;;;;;4.98;100.00;100155.00;5089098;28;20046;-72
2024/03/24 02:38:30;;;;;;;49.72;46.55;;;;;;;4.94;100.00;100161.63;5076353;28;20132;-73
2024/03/24 02:40:58;;;;;;;45.45;40.92;;;;;;;4.98;100.00;100150.53;5086224;28;20090;-72
2024/03/24 02:43:25;;;;;;;34.97;32.58;;;;;;;5.12;100.00;100146.28;5090538;28;20105;-72
2024/03/24 02:45:55;;;;;;;38.42;35.72;;;;;;;5.12;100.00;100141.00;5082155;28;20475;-73
2024/03/24 02:48:23;;;;;;;39.90;37.00;;;;;;;4.73;100.00;100128.97;5079566;28;20055;-72
2024/03/24 02:50:49;;;;;;;35.05;32.55;;;;;;;4.15;100.00;100141.06;5090492;28;20067;-72
2024/03/24 02:53:16;;;;;;;37.60;34.83;;;;;;;4.47;100.00;100133.84;5086315;28;20053;-72
2024/03/24 02:55:45;;;;;;;40.38;37.58;;;;;;;4.37;100.00;100131.50;5086493;28;20048;-72
2024/03/24 02:58:14;;;;;;;37.72;35.13;;;;;;;4.65;100.00;100134.31;5090314;28;20739;-71
2024/03/24 03:00:40;;;;;;;34.88;32.50;;;;;;;4.31;100.00;100140.09;5090149;28;20109;-73
2024/03/24 03:03:07;;;;;;;35.10;32.80;;;;;;;4.73;100.00;100146.56;5087063;28;20107;-71
2024/03/24 03:05:33;;;;;;;37.05;34.60;;;;;;;4.58;100.00;100142.13;5089252;28;20097;-72
2024/03/24 03:08:02;;;;;;;38.17;35.88;;;;;;;4.57;100.00;100139.69;5089301;28;20050;-72
2024/03/24 03:10:30;;;;;;;33.08;30.88;;;;;;;4.30;100.00;100122.69;5084407;28;20433;-72
2024/03/24 03:12:57;;;;;;;33.15;31.15;;;;;;;4.22;100.00;100120.13;5090530;28;20135;-72
2024/03/24 03:15:27;;;;;;;33.90;31.80;;;;;;;3.78;100.00;100128.72;5078834;28;20063;-72
2024/03/24 03:17:55;;;;;;;33.65;31.55;;;;;;;3.74;100.00;100122.19;5090008;28;20515;-72
2024/03/24 03:20:21;;;;;;;34.95;32.75;;;;;;;3.83;100.00;100121.94;5088828;28;20564;-73
2024/03/24 03:22:48;;;;;;;32.95;30.75;;;;;;;4.10;100.00;100111.88;5089609;28;20044;-71
2024/03/24 03:25:15;;;;;;;33.85;31.85;;;;;;;4.33;100.00;100109.19;5084810;28;20056;-71
2024/03/24 03:27:42;;;;;;;37.22;34.92;;;;;;;4.45;100.00;100114.78;5087581;28;20698;-70
2024/03/24 03:30:09;;;;;;;35.85;33.55;;;;;;;4.70;100.00;100113.53;5087735;28;20105;-71
2024/03/24 03:32:38;;;;;;;32.35;30.13;;;;;;;4.34;100.00;100123.97;5089149;28;20079;-71
2024/03/24 03:35:05;;;;;;;34.90;32.60;;;;;;;4.39;100.00;100128.66;5088714;28;20103;-71
2024/03/24 03:37:32;;;;;;;32.22;30.23;;;;;;;4.61;100.00;100130.44;5074732;28;20053;-71
2024/03/24 03:39:58;;;;;;;33.13;31.02;;;;;;;4.56;100.00;100127.50;5084707;28;20492;-72
2024/03/24 03:42:25;;;;;;;33.20;30.90;;;;;;;4.62;100.00;100128.59;5084881;28;20078;-72
2024/03/24 03:44:52;;;;;;;32.00;29.90;;;;;;;4.46;100.00;100125.16;5088947;28;20120;-71
2024/03/24 03:47:22;;;;;;;38.63;36.22;;;;;;;4.19;100.00;100126.56;5088652;28;20134;-71
2024/03/24 03:49:50;;;;;;;35.28;32.88;;;;;;;4.40;100.00;100119.81;5087964;28;20591;-71
2024/03/24 03:52:25;;;;;;;36.88;34.67;;;;;;;4.55;100.00;100118.00;5087120;28;20139;-72
2024/03/24 03:54:53;;;;;;;35.95;33.85;;;;;;;4.23;100.00;100127.03;5069042;28;20056;-70
2024/03/24 03:57:20;;;;;;;34.38;32.15;;;;;;;4.48;100.00;100124.97;5085766;28;20083;-70
2024/03/24 03:59:46;;;;;;;33.58;31.48;;;;;;;4.43;100.00;100115.00;5088922;28;20843;-70
2024/03/24 04:02:13;;;;;;;32.50;30.40;;;;;;;4.00;100.00;100124.44;5089414;28;20052;-71
2024/03/24 04:04:41;;;;;;;30.60;28.50;;;;;;;4.21;100.00;100108.00;5086014;28;20048;-71
2024/03/24 04:07:09;;;;;;;32.08;29.85;;;;;;;4.65;100.00;100113.28;5078720;28;20531;-71
2024/03/24 04:09:35;;;;;;;33.47;31.08;;;;;;;5.09;100.00;100117.69;5088651;28;20095;-72
2024/03/24 04:12:03;;;;;;;38.80;36.10;;;;;;;4.96;100.00;100113.09;5089120;28;20044;-71
2024/03/24 04:14:29;;;;;;;33.85;31.45;;;;;;;4.80;100.00;100113.25;5089001;28;20062;-72
2024/03/24 04:16:56;;;;;;;37.60;34.90;;;;;;;5.51;100.00;100111.66;5080344;28;20075;-72
2024/03/24 04:19:22;;;;;;;35.38;32.88;;;;;;;5.43;100.00;100117.03;5087509;28;20067;-72
2024/03/24 04:21:49;;;;;;;34.92;32.53;;;;;;;5.43;100.00;100108.34;5082026;28;20074;-73
2024/03/24 04:24:17;;;;;;;34.55;32.15;;;;;;;5.26;100.00;100119.09;5086611;28;20117;-72
2024/03/24 04:26:44;;;;;;;36.17;33.58;;;;;;;5.18;100.00;100119.22;5073960;28;20132;-71
2024/03/24 04:29:10;;;;;;;36.63;34.03;;;;;;;5.24;100.00;100121.09;5088329;28;20719;-72
2024/03/24 04:31:37;;;;;;;31.55;29.30;;;;;;;5.11;100.00;100120.13;5086407;28;20062;-72
2024/03/24 04:34:04;;;;;;;30.95;28.75;;;;;;;5.22;100.00;100123.09;5088943;28;20051;-71
2024/03/24 04:36:31;;;;;;;34.15;31.42;;;;;;;5.26;100.00;100127.00;5087564;28;20121;-71
2024/03/24 04:38:57;;;;;;;31.42;29.23;;;;;;;5.07;100.00;100135.47;5087817;28;20060;-70
2024/03/24 04:41:26;;;;;;;35.90;33.40;;;;;;;5.10;100.00;100129.84;5084838;28;20052;-72
2024/03/24 04:43:54;;;;;;;34.08;31.67;;;;;;;5.15;100.00;100134.56;5080722;28;20060;-72
2024/03/24 04:46:20;;;;;;;31.70;29.40;;;;;;;5.15;100.00;100134.56;5075022;28;20052;-72
2024/03/24 04:48:47;;;;;;;32.72;30.42;;;;;;;5.03;100.00;100135.03;5072633;28;20417;-72
2024/03/24 04:51:13;;;;;;;36.85;34.45;;;;;;;4.99;100.00;100133.78;5082054;28;20056;-72
2024/03/24 04:53:40;;;;;;;37.20;34.80;;;;;;;5.17;100.00;100149.16;5077430;28;20130;-72
2024/03/24 04:56:07;;;;;;;33.97;31.67;;;;;;;5.44;100.00;100150.28;5081544;28;20509;-72
2024/03/24 04:58:36;;;;;;;34.20;31.70;;;;;;;5.61;100.00;100147.41;5076283;28;20044;-72
2024/03/24 05:01:03;;;;;;;35.22;32.72;;;;;;;5.69;100.00;100152.59;5084100;28;20049;-70
2024/03/24 05:03:30;;;;;;;38.30;35.70;;;;;;;5.64;100.00;100155.75;5069661;28;20047;-71
2024/03/24 05:05:56;;;;;;;34.22;31.83;;;;;;;5.83;100.00;100159.59;5086468;28;20062;-71
2024/03/24 05:08:23;;;;;;;33.90;31.50;;;;;;;5.85;100.00;100152.31;5088121;28;20475;-70
2024/03/24 05:10:50;;;;;;;36.55;34.03;;;;;;;5.78;100.00;100150.59;5087890;28;20056;-71
2024/03/24 05:13:17;;;;;;;35.08;32.58;;;;;;;6.13;100.00;100151.56;5087843;28;20468;-70
2024/03/24 05:15:50;;;;;;;34.92;32.47;;;;;;;6.28;100.00;100156.75;5088006;28;20052;-70
2024/03/24 05:18:17;;;;;;;38.75;36.05;;;;;;;6.49;100.00;100156.72;5068468;28;20052;-70
2024/03/24 05:20:43;;;;;;;34.80;32.42;;;;;;;6.69;100.00;100154.22;5078394;28;20052;-70
2024/03/24 05:23:10;;;;;;;36.75;34.25;;;;;;;6.86;100.00;100159.97;5087932;28;20036;-70
2024/03/24 05:25:39;;;;;;;36.55;34.05;;;;;;;7.11;100.00;100152.41;5087720;28;20056;-71
2024/03/24 05:28:06;;;;;;;35.72;33.13;;;;;;;7.38;100.00;100148.00;5082386;28;20545;-70
2024/03/24 05:30:32;;;;;;;40.40;37.70;;;;;;;7.43;100.00;100152.72;5086562;28;20101;-70
2024/03/24 05:33:01;;;;;;;37.75;35.05;;;;;;;7.55;100.00;100151.13;5086063;28;20048;-71
2024/03/24 05:35:27;;;;;;;37.50;34.72;;;;;;;7.71;100.00;100145.44;5078122;28;20527;-71
2024/03/24 05:37:54;;;;;;;34.28;31.90;;;;;;;7.87;100.00;100146.91;4727949;28;10000027;-71
2024/03/24 05:40:20;;;;;;;45.50;42.58;;;;;;;8.02;100.00;100149.38;5084742;28;20052;-70
2024/03/24 05:42:47;;;;;;;36.58;33.97;;;;;;;8.16;100.00;100150.97;5080367;28;20044;-72
2024/03/24 05:45:15;;;;;;;33.75;31.15;;;;;;;8.21;100.00;100153.03;5085586;28;20048;-71
2024/03/24 05:47:43;;;;;;;35.35;32.83;;;;;;;8.10;100.00;100151.78;5085011;28;20052;-73
2024/03/24 05:50:10;;;;;;;35.00;32.60;;;;;;;8.28;100.00;100148.53;5085655;28;20075;-71
2024/03/24 05:52:42;;;;;;;35.47;33.08;;;;;;;8.40;100.00;100146.13;5084575;28;20096;-71
2024/03/24 05:55:09;;;;;;;35.72;33.22;;;;;;;8.52;100.00;100146.31;5084149;28;20056;-73
2024/03/24 05:57:37;;;;;;;35.95;33.45;;;;;;;8.25;100.00;100152.41;5085978;28;20613;-72
2024/03/24 06:00:04;;;;;;;37.85;35.17;;;;;;;8.47;100.00;100150.41;5087770;28;20048;-72
2024/03/24 06:02:32;;;;;;;41.83;39.03;;;;;;;8.53;100.00;100154.03;5088421;28;20136;-70
2024/03/24 06:04:58;;;;;;;43.22;40.33;;;;;;;8.80;100.00;100148.69;5077187;28;20058;-71
2024/03/24 06:07:29;;;;;;;40.10;37.40;;;;;;;8.83;100.00;100150.91;5087874;28;20155;-71
2024/03/24 06:09:55;;;;;;;37.15;34.55;;;;;;;8.91;100.00;100153.34;5085149;28;20439;-70
2024/03/24 06:12:22;;;;;;;40.83;38.13;;;;;;;8.98;100.00;100154.13;5088011;28;20048;-70
2024/03/24 06:14:48;;;;;;;40.45;37.60;;;;;;;9.24;100.00;100145.28;5087775;28;20083;-70
2024/03/24 06:17:15;;;;;;;35.28;32.85;;;;;;;9.47;100.00;100149.22;5085577;28;20048;-70
2024/03/24 06:19:42;;;;;;;36.78;34.10;;;;;;;9.68;100.00;100158.69;5088529;28;20048;-71
2024/03/24 06:22:09;;;;;;;40.88;38.17;;;;;;;9.89;100.00;100147.75;5081823;28;20705;-71
2024/03/24 06:24:38;;;;;;;36.20;33.80;;;;;;;9.77;100.00;100147.66;5089292;28;20429;-70
2024/03/24 06:27:06;;;;;;;35.70;33.30;;;;;;;10.37;100.00;100149.84;5088813;28;20158;-71
2024/03/24 06:29:32;;;;;;;35.22;32.83;;;;;;;10.60;100.00;100157.19;5085806;28;20476;-71
2024/03/24 06:31:59;;;;;;;41.80;38.95;;;;;;;10.81;100.00;100155.97;5082940;28;20079;-70
2024/03/24 06:34:26;;;;;;;37.13;34.63;;;;;;;10.90;100.00;100146.66;5083805;28;20099;-70
2024/03/24 06:36:53;;;;;;;37.58;34.88;;;;;;;11.05;100.00;100148.16;5080113;28;20052;-72
2024/03/24 06:39:19;;;;;;;35.58;33.05;;;;;;;11.27;100.00;100148.47;5085591;28;20165;-72
2024/03/24 06:41:49;;;;;;;37.05;34.47;;;;;;;11.17;100.00;100138.38;5082656;28;20138;-73
2024/03/24 06:44:17;;;;;;;35.15;32.55;;;;;;;11.67;100.00;100146.09;5087383;28;20131;-72
2024/03/24 06:46:50;;;;;;;34.85;32.35;;;;;;;11.74;100.00;100149.47;5082249;28;20056;-71
2024/03/24 06:49:16;;;;;;;37.42;34.03;;;;;;;12.00;100.00;100150.13;5088247;28;20775;-72
2024/03/24 06:51:43;;;;;;;37.97;34.92;;;;;;;12.08;100.00;100150.63;5082941;28;20124;-73
2024/03/24 06:54:09;;;;;;;37.25;34.45;;;;;;;12.15;100.00;100148.66;5084054;28;20780;-70
2024/03/24 06:56:37;;;;;;;36.13;33.53;;;;;;;12.50;100.00;100144.41;5081453;28;20052;-71
2024/03/24 06:59:05;;;;;;;37.55;34.95;;;;;;;12.60;100.00;100144.59;5081869;28;20152;-72
2024/03/24 07:01:32;;;;;;;38.53;35.83;;;;;;;12.94;100.00;100145.59;5085743;28;20055;-70
2024/03/24 07:03:58;;;;;;;37.97;35.15;;;;;;;12.88;100.00;100137.72;5082121;28;20105;-70
2024/03/24 07:06:25;;;;;;;34.28;31.67;;;;;;;12.95;100.00;100136.56;5084146;28;20754;-70
2024/03/24 07:08:51;;;;;;;36.00;33.30;;;;;;;13.09;100.00;100142.44;5083232;28;20048;-70
2024/03/24 07:11:18;;;;;;;36.60;34.00;;;;;;;13.17;100.00;100142.06;5085828;28;20105;-70
2024/03/24 07:13:44;;;;;;;37.20;34.50;;;;;;;13.33;100.00;100137.06;5080475;28;20101;-70
2024/03/24 07:16:14;;;;;;;36.53;33.88;;;;;;;13.15;100.00;100130.81;5085637;28;20048;-70
2024/03/24 07:18:40;;;;;;;37.78;35.08;;;;;;;13.21;100.00;100137.06;5085359;28;20060;-70
2024/03/24 07:21:07;;;;;;;39.88;37.00;;;;;;;13.65;100.00;100132.84;5085758;28;20113;-69
2024/03/24 07:23:33;;;;;;;34.40;31.90;;;;;;;13.50;100.00;100130.72;5086017;28;20059;-71
2024/03/24 07:26:01;;;;;;;35.30;32.60;;;;;;;14.36;100.00;100135.84;5087489;28;20059;-71
2024/03/24 07:28:27;;;;;;;37.25;34.42;;;;;;;14.46;100.00;100132.50;5081788;28;20082;-72
2024/03/24 07:30:54;;;;;;;35.28;32.58;;;;;;;14.06;100.00;100133.53;5084387;28;20060;-71
2024/03/24 07:33:21;;;;;;;37.97;34.88;;;;;;;14.60;100.00;100131.16;5078043;28;20044;-73
2024/03/24 07:35:48;;;;;;;40.63;37.63;;;;;;;14.59;100.00;100136.75;5076249;28;21178;-72
2024/03/24 07:38:14;;;;;;;42.13;38.55;;;;;;;14.75;100.00;100135.09;5081076;28;20060;-72
2024/03/24 07:40:42;;;;;;;37.45;34.55;;;;;;;14.56;100.00;100131.91;5085138;28;20056;-70
2024/03/24 07:43:08;;;;;;;35.25;32.45;;;;;;;14.64;100.00;100139.47;5078440;28;20040;-70
2024/03/24 07:45:35;;;;;;;36.45;33.67;;;;;;;14.91;100.00;100126.19;5085889;28;20489;-70
2024/03/24 07:48:01;;;;;;;43.22;40.20;;;;;;;14.65;100.00;100133.09;5078606;28;20052;-70
2024/03/24 07:50:30;;;;;;;47.38;43.55;;;;;;;14.70;100.00;100137.69;5081644;28;20056;-71
2024/03/24 07:52:57;;;;;;;42.00;38.90;;;;;;;13.89;100.00;100124.72;5078729;28;20075;-70
2024/03/24 07:55:24;;;;;;;45.95;42.45;;;;;;;15.38;100.00;100114.97;5075015;28;20506;-70
2024/03/24 07:57:50;;;;;;;45.08;41.78;;;;;;;15.53;100.00;100125.81;5080586;28;20048;-70
2024/03/24 08:00:18;;;;;;;41.83;38.20;;;;;;;16.05;100.00;100129.00;5075235;28;20055;-69
2024/03/24 08:02:44;;;;;;;39.38;36.38;;;;;;;14.77;100.00;100124.97;5081297;28;20101;-72
2024/03/24 08:05:11;;;;;;;46.22;42.13;;;;;;;15.09;100.00;100131.22;5071352;28;20152;-68
2024/03/24 08:07:38;;;;;;;45.25;41.72;;;;;;;15.39;100.00;100129.97;5078959;28;20048;-69
2024/03/24 08:10:06;;;;;;;44.22;40.92;;;;;;;15.29;100.00;100128.00;5079962;28;20191;-70
2024/03/24 08:12:32;;;;;;;45.25;41.47;;;;;;;14.82;100.00;100125.03;5081856;28;20105;-68
2024/03/24 08:15:00;;;;;;;42.05;38.42;;;;;;;14.51;100.00;100126.44;5078440;28;20155;-68
2024/03/24 08:17:26;;;;;;;45.72;42.00;;;;;;;14.79;100.00;100120.16;5078253;28;20473;-69
2024/03/24 08:19:53;;;;;;;40.58;37.58;;;;;;;15.18;100.00;100123.56;5080368;28;20059;-69
2024/03/24 08:22:20;;;;;;;45.60;42.40;;;;;;;14.61;100.00;100131.97;5080597;28;20052;-69
2024/03/24 08:24:49;;;;;;;42.10;38.97;;;;;;;15.65;100.00;100119.53;5081294;28;20052;-69
2024/03/24 08:27:15;;;;;;;40.40;37.42;;;;;;;15.31;100.00;100117.03;5071290;28;20508;-69
2024/03/24 08:29:43;;;;;;;42.30;39.20;;;;;;;15.55;100.00;100109.50;5079995;28;20056;-69
2024/03/24 08:32:09;;;;;;;43.95;40.65;;;;;;;15.90;100.00;100114.41;5079920;28;20895;-70
2024/03/24 08:34:36;;;;;;;41.90;38.80;;;;;;;16.00;100.00;100113.66;5079103;28;20063;-70
2024/03/24 08:37:02;;;;;;;42.45;39.30;;;;;;;15.52;100.00;100112.69;5077524;28;20055;-69
2024/03/24 08:39:29;;;;;;;46.97;43.58;;;;;;;15.34;100.00;100108.53;5079323;28;20055;-68
2024/03/24 08:41:57;;;;;;;42.78;39.67;;;;;;;16.01;100.00;100115.31;5076751;28;20679;-70
2024/03/24 08:44:24;;;;;;;44.25;41.05;;;;;;;15.60;100.00;100106.09;5078545;28;20083;-69
2024/03/24 08:46:50;;;;;;;44.55;41.25;;;;;;;16.43;100.00;100107.28;5075485;28;20091;-68
2024/03/24 08:49:17;;;;;;;46.15;43.05;;;;;;;16.29;100.00;100098.06;5074590;28;20643;-68
2024/03/24 08:51:44;;;;;;;55.08;51.58;;;;;;;15.69;100.00;100093.88;5079403;28;20556;-69
2024/03/24 08:54:11;;;;;;;47.63;44.22;;;;;;;15.06;100.00;100096.97;5083535;28;20047;-68
2024/03/24 08:56:37;;;;;;;42.97;39.80;;;;;;;16.62;100.00;100096.94;5075328;28;20470;-68
2024/03/24 08:59:05;;;;;;;46.65;43.47;;;;;;;17.06;100.00;100093.91;5069134;28;20098;-69
2024/03/24 09:01:31;;;;;;;40.15;37.22;;;;;;;16.02;100.00;100095.47;5086519;28;20056;-69
2024/03/24 09:04:01;;;;;;;39.40;36.58;;;;;;;16.07;100.00;100087.50;5086592;28;20097;-70
2024/03/24 09:06:27;;;;;;;42.58;39.63;;;;;;;17.49;100.00;100078.44;5086641;28;20060;-70
2024/03/24 09:08:54;;;;;;;42.13;39.08;;;;;;;17.23;100.00;100084.84;5087667;28;20567;-69
2024/03/24 09:11:20;;;;;;;40.85;37.85;;;;;;;15.88;100.00;100087.06;5086591;28;21030;-69
2024/03/24 09:13:47;;;;;;;50.15;46.65;;;;;;;17.28;100.00;100068.75;5081246;28;20052;-72
2024/03/24 09:16:14;;;;;;;64.40;60.35;;;;;;;17.33;100.00;100068.75;5085519;28;20098;-69
2024/03/24 09:18:41;;;;;;;43.55;40.35;;;;;;;17.63;100.00;100057.22;5088190;28;20052;-70
2024/03/24 09:21:07;;;;;;;50.17;46.67;;;;;;;17.70;100.00;100063.16;5085187;28;20109;-69
2024/03/24 09:23:34;;;;;;;57.90;53.75;;;;;;;16.18;100.00;100064.25;5084230;28;20572;-71
2024/03/24 09:26:01;;;;;;;52.35;48.55;;;;;;;16.89;100.00;100047.72;5084602;28;20052;-69
2024/03/24 09:28:29;;;;;;;51.08;47.67;;;;;;;18.20;100.00;100045.38;5082048;28;20117;-69
2024/03/24 09:30:56;;;;;;;49.05;45.65;;;;;;;18.62;100.00;100044.16;5081345;28;20105;-69
2024/03/24 09:33:25;;;;;;;55.25;51.55;;;;;;;17.49;100.00;100030.13;5083511;28;20127;-70
2024/03/24 09:35:51;;;;;;;54.60;50.45;;;;;;;17.83;100.00;100038.44;5087938;28;20898;-70
2024/03/24 09:38:19;;;;;;;46.63;43.33;;;;;;;18.44;100.00;100025.94;5089708;28;20478;-70
2024/03/24 09:40:47;;;;;;;37.63;34.72;;;;;;;18.07;100.00;100032.50;5085837;28;20052;-71
2024/03/24 09:43:18;;;;;;;59.28;55.40;;;;;;;18.48;100.00;100025.13;5067603;28;20091;-72
2024/03/24 09:45:44;;;;;;;37.55;34.75;;;;;;;18.46;98.01;100021.91;5084980;28;20053;-70
2024/03/24 09:48:13;;;;;;;66.32;62.22;;;;;;;17.40;100.00;100018.31;5091906;28;20580;-71
2024/03/24 09:50:41;;;;;;;44.47;41.28;;;;;;;16.22;100.00;100017.94;5087315;28;20052;-71
2024/03/24 09:53:09;;;;;;;36.67;33.88;;;;;;;19.17;100.00;100011.88;5082745;28;20059;-71
2024/03/24 09:55:36;;;;;;;43.55;40.45;;;;;;;19.46;100.00;100011.94;5076160;28;20577;-71
2024/03/24 09:58:04;;;;;;;66.50;62.20;;;;;;;18.93;91.92;100012.56;5088135;28;20079;-71
2024/03/24 10:00:30;;;;;;;41.45;37.72;;;;;;;19.84;86.51;100007.56;5089701;28;20125;-71
2024/03/24 10:02:57;;;;;;;40.38;37.17;;;;;;;18.95;90.46;100009.59;5090512;28;20497;-71
2024/03/24 10:05:24;;;;;;;42.58;39.20;;;;;;;18.10;91.69;100005.09;5078587;28;20629;-71
2024/03/24 10:07:53;;;;;;;37.35;34.30;;;;;;;19.48;90.95;99993.59;5087405;28;20503;-71
2024/03/24 10:10:19;;;;;;;53.95;50.15;;;;;;;18.61;92.07;99994.16;5082347;28;20056;-71
2024/03/24 10:12:56;;;;;;;64.95;60.65;;;;;;;18.32;100.00;99988.63;5080928;28;20080;-71
2024/03/24 10:15:25;;;;;;;78.65;73.75;;;;;;;15.89;100.00;99991.50;5090825;28;20052;-71
2024/03/24 10:18:04;;;;;;;80.28;75.68;;;;;;;19.21;100.00;99984.13;5092055;28;20052;-71
2024/03/24 10:20:30;;;;;;;70.95;66.55;;;;;;;17.97;100.00;99984.16;5089443;28;20478;-70
2024/03/24 10:22:59;;;;;;;77.57;73.10;;;;;;;16.57;100.00;99973.56;5081647;28;20140;-71
2024/03/24 10:25:26;;;;;;;79.60;75.10;;;;;;;20.45;90.53;99981.81;5086419;28;20056;-71
2024/03/24 10:27:55;;;;;;;82.00;77.28;;;;;;;20.17;74.14;99978.13;5086059;28;20055;-71
2024/03/24 10:30:22;;;;;;;84.38;79.60;;;;;;;18.84;92.95;99968.50;5076061;28;20052;-70
2024/03/24 10:32:49;;;;;;;79.82;75.13;;;;;;;19.36;87.13;99974.31;5079035;28;20054;-70
2024/03/24 10:35:16;;;;;;;71.55;67.25;;;;;;;16.34;100.00;99966.81;5083426;28;20079;-70
2024/03/24 10:37:43;;;;;;;68.47;64.18;;;;;;;17.36;100.00;99967.00;5082425;28;20048;-70
2024/03/24 10:40:13;;;;;;;74.93;70.32;;;;;;;17.66;100.00;99959.22;5089170;28;20873;-69
2024/03/24 10:42:46;;;;;;;65.47;61.38;;;;;;;19.11;100.00;99959.97;5084882;28;20062;-70
2024/03/24 10:45:14;;;;;;;70.63;66.40;;;;;;;18.99;92.14;99946.84;5089942;28;20139;-71
2024/03/24 10:47:42;;;;;;;91.70;86.70;;;;;;;19.53;91.97;99946.97;5087650;28;20056;-71
2024/03/24 10:50:13;;;;;;;88.00;83.05;;;;;;;19.94;87.50;99943.88;5085125;28;20617;-70
2024/03/24 10:52:43;;;;;;;82.00;77.30;;;;;;;18.75;88.96;99941.38;5075777;28;20084;-71
2024/03/24 10:55:13;;;;;;;68.35;64.05;;;;;;;20.47;76.52;99925.69;5085130;28;20048;-71
2024/03/24 10:57:42;;;;;;;62.58;58.58;;;;;;;20.87;79.75;99933.53;5069455;28;20056;-70
2024/03/24 11:00:13;;;;;;;70.70;66.50;;;;;;;17.93;84.54;99935.53;5083841;28;20496;-70
2024/03/24 11:02:40;;;;;;;75.18;70.57;;;;;;;19.10;100.00;99930.66;5075612;28;20079;-72
2024/03/24 11:05:08;;;;;;;73.60;69.25;;;;;;;17.58;99.28;99918.44;5087930;28;20248;-70
2024/03/24 11:07:37;;;;;;;78.70;74.20;;;;;;;15.66;100.00;99931.88;5072679;28;20056;-71